createdAt,value
2023-03-29T00:00:35.933Z,1004.3
2023-03-29T00:10:42.135Z,1004
2023-03-29T00:20:48.348Z,1004
2023-03-29T00:30:54.549Z,1004.1
2023-03-29T00:41:00.778Z,1003.9
2023-03-29T00:51:06.980Z,1003.8
2023-03-29T01:01:12.242Z,1003.8
2023-03-29T01:11:18.456Z,1003.6
2023-03-29T01:21:24.679Z,1003.4
2023-03-29T01:31:30.906Z,1003.3
2023-03-29T01:41:37.097Z,1003.2
2023-03-29T01:51:43.305Z,1003
2023-03-29T02:01:49.522Z,1003.1
2023-03-29T02:11:55.724Z,1003
2023-03-29T02:22:01.964Z,1002.9
2023-03-29T02:32:08.153Z,1002.9
2023-03-29T02:42:14.359Z,1002.8
2023-03-29T02:52:20.573Z,1002.7
2023-03-29T03:02:26.789Z,1002.6
2023-03-29T03:12:32.047Z,1002.5
2023-03-29T03:22:38.269Z,1002.3
2023-03-29T03:32:44.477Z,1002.3
2023-03-29T03:42:50.688Z,1002.3
2023-03-29T03:52:56.897Z,1002.2
2023-03-29T04:03:03.100Z,1002.2
2023-03-29T04:13:09.316Z,1002.2
2023-03-29T04:23:15.521Z,1002.1
2023-03-29T04:33:21.730Z,1002.2
2023-03-29T04:43:27.948Z,1002
2023-03-29T04:53:34.169Z,1002.1
2023-03-29T05:03:40.406Z,1002
2023-03-29T05:13:46.599Z,1002
2023-03-29T05:23:52.796Z,1002
2023-03-29T05:33:58.059Z,1002.2
2023-03-29T05:44:04.271Z,1002.1
2023-03-29T05:54:10.487Z,1002
2023-03-29T06:04:16.709Z,1001.9
2023-03-29T06:14:22.897Z,1001.9
2023-03-29T06:24:29.124Z,1002
2023-03-29T06:34:35.328Z,1002.1
2023-03-29T06:44:41.605Z,1002.1
2023-03-29T06:54:47.754Z,1002.1
2023-03-29T07:04:53.956Z,1002.1
2023-03-29T07:15:00.155Z,1002.1
2023-03-29T07:25:06.364Z,1002.2
2023-03-29T07:35:12.585Z,1002.2
2023-03-29T07:45:18.789Z,1002.4
2023-03-29T07:55:24.033Z,1002.4
2023-03-29T08:05:30.251Z,1002.4
2023-03-29T08:15:36.441Z,1002.4
2023-03-29T08:25:42.635Z,1002.3
2023-03-29T08:35:48.849Z,1002.2
2023-03-29T08:45:55.112Z,1002.2
2023-03-29T08:56:01.255Z,1002.2
2023-03-29T09:06:07.455Z,1002.1
2023-03-29T09:26:19.874Z,1002.2
2023-03-29T09:36:26.074Z,1002.2
2023-03-29T09:56:38.493Z,1002.2
2023-03-29T10:06:43.747Z,1002.2
2023-03-29T10:16:49.959Z,1002.1
2023-03-29T10:26:56.235Z,1002
2023-03-29T10:37:02.453Z,1001.7
2023-03-29T10:47:08.642Z,1001.6
2023-03-29T10:57:14.874Z,1001.6
2023-03-29T11:07:21.075Z,1001.7
2023-03-29T11:17:27.270Z,1001.7
2023-03-29T11:27:33.484Z,1001.7
2023-03-29T11:37:39.696Z,1001.5
2023-03-29T11:47:45.895Z,1001.5
2023-03-29T11:57:52.116Z,1001.4
2023-03-29T12:07:58.296Z,1001.3
2023-03-29T12:18:03.548Z,1001.1
2023-03-29T12:28:09.950Z,1001
2023-03-29T12:38:16.144Z,1001
2023-03-29T12:48:22.354Z,1000.8
2023-03-29T12:58:28.569Z,1000.8
2023-03-29T13:08:34.767Z,1000.6
2023-03-29T13:18:40.982Z,1000.4
2023-03-29T13:28:47.205Z,1000.3
2023-03-29T13:38:53.390Z,1000.2
2023-03-29T13:48:59.677Z,1000.2
2023-03-29T13:59:05.903Z,1000.1
2023-03-29T14:09:12.108Z,1000.1
2023-03-29T14:19:18.307Z,999.9
2023-03-29T14:29:23.607Z,999.8
2023-03-29T14:39:29.764Z,999.8
2023-03-29T14:49:35.986Z,999.6
2023-03-29T14:59:42.181Z,999.5
2023-03-29T15:09:48.404Z,999.3
2023-03-29T15:19:54.592Z,999
2023-03-29T15:30:00.798Z,999.1
2023-03-29T15:40:07.011Z,999
2023-03-29T15:50:13.204Z,998.9
2023-03-29T16:00:19.415Z,998.8
2023-03-29T16:10:25.638Z,998.7
2023-03-29T16:20:31.833Z,998.6
2023-03-29T16:30:38.035Z,998.6
2023-03-29T16:40:43.299Z,998.5
2023-03-29T16:50:49.521Z,998.5
2023-03-29T17:11:01.900Z,998.3
2023-03-29T17:21:08.130Z,998.3
2023-03-29T17:31:14.328Z,998.1
2023-03-29T17:41:20.556Z,998.2
2023-03-29T17:51:26.724Z,998
2023-03-29T18:01:32.950Z,997.9
2023-03-29T18:11:39.170Z,997.9
2023-03-29T18:21:45.359Z,998.1
2023-03-29T18:31:51.564Z,998.2
2023-03-29T18:41:57.777Z,998
2023-03-29T18:52:03.018Z,997.9
2023-03-29T19:02:09.241Z,997.8
2023-03-29T19:12:15.442Z,998.1
2023-03-29T19:22:21.633Z,998.1
2023-03-29T19:32:27.859Z,998.1
2023-03-29T19:42:34.056Z,998
2023-03-29T19:52:40.230Z,998
2023-03-29T20:02:46.449Z,997.7
2023-03-29T20:12:52.659Z,997.6
2023-03-29T20:22:58.854Z,997.2
2023-03-29T20:33:05.059Z,997
2023-03-29T20:43:11.264Z,996.9
2023-03-29T20:53:17.465Z,996.8
2023-03-29T21:03:22.751Z,996.8
2023-03-29T21:13:28.936Z,996.7
2023-03-29T21:23:35.145Z,996.6
2023-03-29T21:33:41.347Z,996.4
2023-03-29T21:43:47.552Z,996.3
2023-03-29T21:53:53.761Z,996.2
2023-03-29T22:04:00.007Z,996.2
2023-03-29T22:14:06.184Z,996
2023-03-29T22:24:12.373Z,995.9
2023-03-29T22:34:18.591Z,995.9
2023-03-29T22:44:24.792Z,995.9
2023-03-29T22:54:31.002Z,996
2023-03-29T23:04:36.279Z,996
2023-03-29T23:14:42.483Z,995.9
2023-03-29T23:24:48.673Z,995.7
2023-03-29T23:34:54.891Z,995.5
2023-03-29T23:45:01.251Z,995.4
2023-03-29T23:55:07.312Z,995.2
